createdAt,value
2022-12-23T00:01:25.109Z,1.60
2022-12-23T00:03:57.836Z,1.60
2022-12-23T00:06:25.531Z,1.50
2022-12-23T00:08:52.663Z,1.73
2022-12-23T00:11:20.462Z,1.83
2022-12-23T00:13:47.576Z,1.70
2022-12-23T00:16:15.403Z,1.52
2022-12-23T00:18:43.402Z,1.80
2022-12-23T00:21:14.291Z,1.83
2022-12-23T00:23:43.677Z,1.60
2022-12-23T00:26:14.725Z,1.55
2022-12-23T00:28:42.046Z,1.60
2022-12-23T00:31:10.230Z,1.60
2022-12-23T00:33:39.516Z,1.63
2022-12-23T00:36:13.612Z,1.50
2022-12-23T00:41:11.209Z,1.40
2022-12-23T00:43:38.336Z,1.75
2022-12-23T00:46:05.707Z,1.50
2022-12-23T00:48:32.833Z,1.52
2022-12-23T00:51:00.033Z,1.52
2022-12-23T00:53:28.579Z,1.50
2022-12-23T00:55:55.859Z,1.42
2022-12-23T00:58:23.001Z,1.40
2022-12-23T01:00:50.195Z,1.50
2022-12-23T01:03:17.830Z,1.45
2022-12-23T01:05:45.011Z,1.40
2022-12-23T01:08:12.899Z,1.80
2022-12-23T01:10:41.437Z,1.60
2022-12-23T01:13:08.617Z,1.50
2022-12-23T01:15:35.707Z,1.50
2022-12-23T01:18:02.821Z,1.30
2022-12-23T01:20:30.014Z,1.52
2022-12-23T01:22:57.150Z,1.35
2022-12-23T01:25:24.277Z,1.15
2022-12-23T01:27:52.752Z,1.30
2022-12-23T01:30:19.937Z,1.40
2022-12-23T01:32:47.050Z,1.55
2022-12-23T01:35:14.434Z,1.48
2022-12-23T01:37:41.621Z,1.30
2022-12-23T01:40:09.628Z,1.30
2022-12-23T01:42:36.742Z,1.38
2022-12-23T01:45:14.075Z,1.60
2022-12-23T01:47:45.836Z,1.30
2022-12-23T01:50:16.953Z,1.50
2022-12-23T01:52:46.757Z,1.40
2022-12-23T01:55:16.768Z,1.67
2022-12-23T01:57:44.822Z,1.30
2022-12-23T02:03:20.669Z,1.40
2022-12-23T02:05:48.791Z,1.30
2022-12-23T02:08:16.631Z,1.40
2022-12-23T02:11:04.214Z,1.27
2022-12-23T02:13:39.962Z,1.42
2022-12-23T02:16:13.854Z,1.23
2022-12-23T02:19:13.317Z,1.10
2022-12-23T02:21:58.478Z,1.10
2022-12-23T02:24:54.277Z,1.40
2022-12-23T02:27:28.648Z,1.27
2022-12-23T02:30:25.487Z,1.45
2022-12-23T02:33:18.525Z,1.40
2022-12-23T02:35:55.971Z,1.33
2022-12-23T02:38:28.821Z,1.08
2022-12-23T02:41:04.879Z,1.20
2022-12-23T02:43:41.971Z,1.38
2022-12-23T02:46:13.718Z,1.10
2022-12-23T02:48:47.666Z,1.20
2022-12-23T02:51:15.774Z,1.10
2022-12-23T02:53:47.636Z,1.40
2022-12-23T02:56:17.810Z,1.40
2022-12-23T02:58:59.896Z,1.30
2022-12-23T03:01:31.692Z,1.10
2022-12-23T03:04:00.466Z,1.15
2022-12-23T03:06:32.295Z,1.20
2022-12-23T03:09:00.707Z,1.20
2022-12-23T03:11:38.157Z,1.30
2022-12-23T03:14:18.848Z,1.50
2022-12-23T03:16:53.478Z,1.10
2022-12-23T03:19:30.521Z,1.20
2022-12-23T03:22:08.296Z,1.17
2022-12-23T03:24:41.127Z,1.10
2022-12-23T03:27:11.977Z,1.30
2022-12-23T03:29:45.744Z,1.00
2022-12-23T03:32:15.783Z,1.10
2022-12-23T03:34:48.108Z,0.95
2022-12-23T03:37:19.877Z,1.10
2022-12-23T03:39:54.035Z,1.10
2022-12-23T03:42:26.538Z,1.20
2022-12-23T03:45:36.331Z,1.20
2022-12-23T03:47:46.743Z,0.95
2022-12-23T03:50:19.428Z,1.10
2022-12-23T03:52:52.837Z,1.25
2022-12-23T03:55:25.286Z,1.17
2022-12-23T03:57:58.186Z,1.00
2022-12-23T04:00:29.156Z,0.93
2022-12-23T04:03:04.171Z,1.10
2022-12-23T04:05:36.519Z,1.15
2022-12-23T04:08:10.099Z,1.13
2022-12-23T04:10:37.431Z,1.10
2022-12-23T04:13:05.470Z,1.10
2022-12-23T04:15:32.832Z,1.17
2022-12-23T04:17:59.956Z,1.15
2022-12-23T04:20:27.071Z,0.93
2022-12-23T04:22:55.587Z,1.20
2022-12-23T04:25:22.693Z,1.10
2022-12-23T04:27:49.807Z,0.90
2022-12-23T04:30:17.011Z,1.00
2022-12-23T04:32:44.687Z,1.15
2022-12-23T04:35:12.415Z,1.13
2022-12-23T04:37:39.556Z,1.35
2022-12-23T04:40:09.114Z,1.20
2022-12-23T04:42:36.317Z,1.25
2022-12-23T04:45:03.684Z,1.40
2022-12-23T04:47:30.781Z,1.08
2022-12-23T04:49:58.295Z,1.05
2022-12-23T04:52:25.364Z,1.30
2022-12-23T04:54:52.502Z,1.20
2022-12-23T04:57:21.086Z,1.00
2022-12-23T04:59:48.177Z,1.20
2022-12-23T05:02:15.467Z,1.05
2022-12-23T05:04:42.751Z,0.98
2022-12-23T05:07:09.879Z,1.00
2022-12-23T05:09:37.054Z,1.20
2022-12-23T05:12:04.450Z,1.10
2022-12-23T05:14:32.948Z,1.10
2022-12-23T05:17:06.954Z,1.10
2022-12-23T05:19:34.648Z,0.95
2022-12-23T05:22:01.762Z,1.05
2022-12-23T05:24:28.867Z,1.10
2022-12-23T05:27:00.179Z,1.10
2022-12-23T05:29:27.792Z,1.17
2022-12-23T05:31:56.353Z,1.15
2022-12-23T05:34:23.602Z,1.58
2022-12-23T05:36:50.705Z,1.02
2022-12-23T05:39:17.819Z,0.95
2022-12-23T05:41:44.903Z,1.23
2022-12-23T05:44:12.031Z,0.90
2022-12-23T05:46:39.191Z,1.02
2022-12-23T05:49:07.690Z,1.10
2022-12-23T05:51:34.826Z,1.05
2022-12-23T05:54:01.913Z,1.08
2022-12-23T05:56:29.067Z,1.13
2022-12-23T05:58:56.174Z,1.10
2022-12-23T06:01:23.275Z,1.00
2022-12-23T06:03:50.500Z,1.00
2022-12-23T06:06:18.994Z,1.10
2022-12-23T06:08:46.105Z,1.10
2022-12-23T06:11:13.256Z,1.20
2022-12-23T06:13:40.561Z,0.93
2022-12-23T06:16:07.852Z,0.80
2022-12-23T06:18:35.090Z,1.08
2022-12-23T06:21:02.226Z,1.30
2022-12-23T06:23:30.721Z,1.30
2022-12-23T06:26:01.731Z,1.65
2022-12-23T06:28:29.298Z,1.40
2022-12-23T06:30:57.207Z,1.25
2022-12-23T06:33:24.940Z,1.20
2022-12-23T06:35:53.267Z,1.27
2022-12-23T06:38:20.443Z,1.40
2022-12-23T06:40:48.891Z,1.40
2022-12-23T06:43:16.040Z,1.50
2022-12-23T06:45:46.352Z,1.27
2022-12-23T06:48:13.797Z,1.40
2022-12-23T06:50:41.021Z,1.45
2022-12-23T06:53:08.770Z,1.23
2022-12-23T06:55:35.905Z,1.40
2022-12-23T06:58:04.635Z,1.40
2022-12-23T07:00:31.766Z,1.40
2022-12-23T07:02:58.968Z,1.50
2022-12-23T07:05:28.517Z,1.35
2022-12-23T07:07:58.301Z,1.52
2022-12-23T07:10:25.464Z,1.48
2022-12-23T07:12:52.589Z,1.35
2022-12-23T07:15:21.051Z,1.60
2022-12-23T07:17:48.157Z,1.40
2022-12-23T07:20:15.380Z,1.20
2022-12-23T07:22:42.501Z,1.60
2022-12-23T07:25:10.096Z,1.40
2022-12-23T07:27:37.238Z,1.40
2022-12-23T07:30:05.860Z,1.48
2022-12-23T07:32:34.369Z,1.38
2022-12-23T07:35:01.483Z,1.23
2022-12-23T07:37:28.574Z,1.50
2022-12-23T07:39:55.761Z,1.35
2022-12-23T07:42:44.095Z,1.50
2022-12-23T07:45:10.945Z,1.50
2022-12-23T07:47:39.437Z,1.52
2022-12-23T07:50:07.825Z,1.67
2022-12-23T07:52:34.926Z,1.60
2022-12-23T07:55:02.051Z,1.55
2022-12-23T07:57:29.166Z,1.42
2022-12-23T07:59:56.265Z,1.60
2022-12-23T08:02:23.531Z,1.35
2022-12-23T08:04:52.155Z,1.45
2022-12-23T08:07:19.294Z,1.38
2022-12-23T08:09:46.392Z,1.20
2022-12-23T08:12:13.480Z,1.38
2022-12-23T08:14:40.614Z,1.33
2022-12-23T08:17:08.047Z,1.40
2022-12-23T08:19:35.209Z,1.50
2022-12-23T08:22:03.683Z,1.27
2022-12-23T08:24:30.832Z,1.30
2022-12-23T08:26:57.915Z,1.50
2022-12-23T08:29:25.237Z,1.70
2022-12-23T08:31:52.350Z,1.70
2022-12-23T08:34:19.455Z,1.70
2022-12-23T08:36:46.556Z,5.35
2022-12-23T08:39:15.670Z,4.03
2022-12-23T08:41:45.537Z,2.75
2022-12-23T08:44:13.441Z,1.75
2022-12-23T08:46:41.389Z,2.13
2022-12-23T08:49:09.341Z,2.08
2022-12-23T08:51:37.568Z,2.17
2022-12-23T08:54:06.101Z,2.33
2022-12-23T08:56:36.180Z,2.10
2022-12-23T08:59:03.992Z,1.80
2022-12-23T09:01:33.452Z,1.33
2022-12-23T09:04:02.762Z,1.30
2022-12-23T09:06:34.063Z,1.05
2022-12-23T09:09:01.183Z,1.20
2022-12-23T09:11:29.338Z,0.95
2022-12-23T09:13:59.368Z,0.90
2022-12-23T09:16:26.698Z,0.90
2022-12-23T09:18:54.034Z,0.75
2022-12-23T09:21:22.950Z,0.70
2022-12-23T09:23:50.342Z,0.75
2022-12-23T09:26:19.900Z,0.70
2022-12-23T09:28:47.351Z,0.70
2022-12-23T09:31:16.263Z,0.60
2022-12-23T09:33:46.806Z,0.80
2022-12-23T09:36:14.078Z,0.73
2022-12-23T09:38:41.181Z,0.77
2022-12-23T09:41:17.970Z,0.80
2022-12-23T09:43:51.982Z,1.00
2022-12-23T09:46:23.174Z,1.20
2022-12-23T09:49:00.613Z,1.00
2022-12-23T09:51:29.172Z,1.40
2022-12-23T09:54:00.586Z,1.40
2022-12-23T09:56:37.745Z,1.25
2022-12-23T09:59:14.490Z,1.17
2022-12-23T10:01:50.687Z,1.20
2022-12-23T10:04:35.750Z,1.10
2022-12-23T10:07:23.805Z,1.10
2022-12-23T10:09:53.905Z,1.20
2022-12-23T10:12:34.339Z,1.13
2022-12-23T10:15:16.751Z,1.23
2022-12-23T10:17:46.422Z,1.30
2022-12-23T10:20:19.244Z,0.90
2022-12-23T10:22:46.858Z,1.00
2022-12-23T10:25:20.292Z,1.20
2022-12-23T10:27:47.556Z,1.10
2022-12-23T10:30:42.514Z,1.00
2022-12-23T10:33:13.902Z,1.10
2022-12-23T10:35:53.543Z,0.98
2022-12-23T10:38:46.373Z,1.00
2022-12-23T10:41:24.045Z,0.98
2022-12-23T10:44:27.015Z,0.85
2022-12-23T10:47:01.626Z,0.85
2022-12-23T10:49:39.175Z,1.00
2022-12-23T10:52:12.704Z,0.85
2022-12-23T10:54:42.180Z,0.90
2022-12-23T10:57:09.696Z,1.20
2022-12-23T10:59:37.112Z,1.08
2022-12-23T11:02:24.382Z,1.08
2022-12-23T11:04:52.917Z,1.20
2022-12-23T11:07:44.046Z,1.23
2022-12-23T11:10:16.804Z,1.25
2022-12-23T11:12:47.216Z,0.75
2022-12-23T11:15:27.153Z,1.00
2022-12-23T11:18:03.708Z,0.98
2022-12-23T11:20:33.487Z,0.80
2022-12-23T11:23:02.963Z,0.98
2022-12-23T11:25:36.973Z,0.82
2022-12-23T11:28:08.129Z,0.90
2022-12-23T11:30:38.832Z,1.00
2022-12-23T11:33:06.246Z,0.70
2022-12-23T11:35:36.267Z,0.80
2022-12-23T11:38:04.274Z,1.00
2022-12-23T11:40:35.651Z,1.00
2022-12-23T11:43:05.962Z,0.90
2022-12-23T11:45:36.282Z,1.00
2022-12-23T11:48:05.673Z,0.80
2022-12-23T11:50:36.385Z,0.80
2022-12-23T11:53:11.504Z,0.90
2022-12-23T11:55:46.737Z,0.93
2022-12-23T11:58:21.727Z,0.90
2022-12-23T12:00:57.325Z,0.80
2022-12-23T12:03:30.261Z,0.88
2022-12-23T12:06:01.911Z,0.70
2022-12-23T12:08:37.391Z,0.80
2022-12-23T12:11:08.002Z,0.95
2022-12-23T12:13:39.804Z,0.80
2022-12-23T12:16:31.175Z,0.90
2022-12-23T12:19:04.210Z,1.00
2022-12-23T12:21:37.280Z,0.98
2022-12-23T12:24:18.829Z,0.77
2022-12-23T12:26:50.410Z,0.75
2022-12-23T12:29:25.287Z,0.90
2022-12-23T12:31:54.330Z,0.77
2022-12-23T12:34:34.014Z,0.70
2022-12-23T12:37:12.409Z,0.85
2022-12-23T12:39:43.178Z,0.88
2022-12-23T12:42:15.558Z,0.73
2022-12-23T12:44:53.745Z,0.60
2022-12-23T12:47:52.787Z,0.90
2022-12-23T12:50:18.122Z,0.90
2022-12-23T12:52:46.566Z,0.90
2022-12-23T12:55:21.324Z,0.80
2022-12-23T12:57:48.521Z,0.80
2022-12-23T13:00:18.323Z,0.82
2022-12-23T13:03:08.297Z,0.70
2022-12-23T13:05:55.596Z,0.80
2022-12-23T13:08:40.516Z,0.88
2022-12-23T13:11:14.045Z,1.00
2022-12-23T13:13:49.526Z,0.80
2022-12-23T13:16:27.596Z,1.20
2022-12-23T13:19:00.057Z,1.02
2022-12-23T13:21:32.877Z,1.10
2022-12-23T13:24:11.552Z,1.00
2022-12-23T13:26:51.972Z,1.02
2022-12-23T13:29:42.280Z,0.90
2022-12-23T13:32:21.687Z,1.08
2022-12-23T13:34:55.887Z,1.30
2022-12-23T13:37:32.395Z,0.82
2022-12-23T13:40:09.939Z,0.88
2022-12-23T13:42:42.213Z,1.15
2022-12-23T13:45:14.361Z,1.30
2022-12-23T13:47:52.788Z,1.08
2022-12-23T13:50:26.231Z,1.33
2022-12-23T13:53:06.929Z,1.17
2022-12-23T13:55:51.646Z,1.20
2022-12-23T13:58:20.990Z,0.88
2022-12-23T14:00:57.601Z,1.50
2022-12-23T14:03:32.293Z,0.95
2022-12-23T14:05:59.671Z,1.27
2022-12-23T14:08:40.646Z,1.30
2022-12-23T14:11:18.515Z,1.30
2022-12-23T14:13:53.080Z,1.20
2022-12-23T14:16:32.258Z,1.27
2022-12-23T14:19:20.174Z,1.30
2022-12-23T14:21:56.787Z,1.30
2022-12-23T14:25:09.674Z,1.10
2022-12-23T14:27:51.047Z,1.50
2022-12-23T14:30:25.347Z,1.20
2022-12-23T14:35:47.710Z,1.17
2022-12-23T14:38:34.430Z,1.13
2022-12-23T14:41:34.201Z,1.20
2022-12-23T14:44:02.779Z,1.20
2022-12-23T14:46:54.687Z,1.30
2022-12-23T14:49:39.627Z,1.50
2022-12-23T14:52:52.920Z,1.50
2022-12-23T14:55:42.368Z,1.95
2022-12-23T14:58:32.474Z,4.05
2022-12-23T15:01:04.780Z,29.35
2022-12-23T15:03:35.024Z,26.08
2022-12-23T15:06:06.637Z,32.22
2022-12-23T15:08:37.394Z,17.83
2022-12-23T15:11:07.412Z,15.15
2022-12-23T15:13:35.133Z,16.13
2022-12-23T15:16:03.622Z,20.13
2022-12-23T15:18:30.823Z,27.98
2022-12-23T15:20:59.954Z,53.53
2022-12-23T15:23:27.105Z,65.25
2022-12-23T15:25:56.947Z,71.47
2022-12-23T15:28:34.687Z,43.08
2022-12-23T15:31:03.599Z,27.83
2022-12-23T15:34:02.078Z,27.88
2022-12-23T15:36:28.940Z,28.23
2022-12-23T15:38:56.930Z,27.00
2022-12-23T15:41:24.044Z,26.25
2022-12-23T15:43:51.652Z,26.48
2022-12-23T15:46:29.315Z,25.85
2022-12-23T15:48:57.541Z,24.13
2022-12-23T15:51:58.193Z,24.00
2022-12-23T15:54:24.223Z,23.65
2022-12-23T15:56:53.647Z,23.48
2022-12-23T15:59:24.260Z,23.70
2022-12-23T16:01:53.306Z,22.00
2022-12-23T16:04:25.839Z,21.50
2022-12-23T16:06:53.890Z,21.58
2022-12-23T16:09:31.805Z,21.38
2022-12-23T16:12:01.720Z,22.67
2022-12-23T16:14:35.205Z,19.90
2022-12-23T16:17:14.436Z,19.35
2022-12-23T16:19:44.116Z,19.00
2022-12-23T16:22:27.272Z,19.08
2022-12-23T16:25:01.957Z,20.77
2022-12-23T16:27:36.199Z,20.02
2022-12-23T16:30:10.983Z,18.73
2022-12-23T16:32:55.879Z,18.10
2022-12-23T16:35:37.916Z,19.15
2022-12-23T16:38:16.915Z,17.85
2022-12-23T16:40:45.509Z,18.42
2022-12-23T16:43:12.931Z,17.25
2022-12-23T16:45:40.930Z,16.88
2022-12-23T16:48:16.951Z,17.92
2022-12-23T16:50:45.258Z,15.80
2022-12-23T16:53:12.926Z,16.42
2022-12-23T16:55:44.393Z,16.02
2022-12-23T16:58:15.464Z,15.63
2022-12-23T17:00:42.845Z,15.02
2022-12-23T17:03:16.438Z,15.50
2022-12-23T17:05:43.735Z,15.77
2022-12-23T17:08:11.007Z,13.82
2022-12-23T17:10:39.493Z,15.43
2022-12-23T17:13:06.789Z,13.75
2022-12-23T17:15:33.888Z,14.52
2022-12-23T17:18:00.992Z,14.95
2022-12-23T17:20:30.762Z,13.73
2022-12-23T17:22:59.896Z,13.48
2022-12-23T17:25:26.998Z,13.02
2022-12-23T17:27:54.273Z,13.05
2022-12-23T17:30:23.172Z,12.80
2022-12-23T17:32:55.245Z,13.20
2022-12-23T17:35:22.882Z,13.05
2022-12-23T17:37:52.139Z,13.48
2022-12-23T17:40:19.797Z,11.45
2022-12-23T17:42:47.331Z,11.75
2022-12-23T17:45:27.061Z,12.48
2022-12-23T17:47:54.390Z,11.98
2022-12-23T17:50:22.026Z,10.75
2022-12-23T17:52:50.991Z,11.00
2022-12-23T17:55:21.481Z,12.15
2022-12-23T17:57:48.807Z,10.23
2022-12-23T18:00:25.428Z,10.85
2022-12-23T18:02:58.831Z,9.85
2022-12-23T18:05:28.066Z,10.63
2022-12-23T18:08:00.153Z,10.25
2022-12-23T18:10:29.657Z,10.48
2022-12-23T18:12:59.630Z,9.50
2022-12-23T18:15:32.707Z,9.75
2022-12-23T18:18:00.003Z,9.23
2022-12-23T18:20:27.365Z,9.48
2022-12-23T18:22:56.936Z,9.48
2022-12-23T18:25:25.952Z,9.38
2022-12-23T18:27:54.036Z,9.20
2022-12-23T18:30:21.882Z,8.40
2022-12-23T18:32:49.145Z,8.85
2022-12-23T18:35:24.071Z,7.88
2022-12-23T18:37:51.556Z,7.70
2022-12-23T18:40:20.455Z,8.00
2022-12-23T18:42:47.592Z,7.32
2022-12-23T18:45:26.345Z,7.88
2022-12-23T18:47:53.712Z,6.95
2022-12-23T18:50:21.057Z,7.43
2022-12-23T18:52:48.501Z,7.60
2022-12-23T18:55:15.669Z,7.25
2022-12-23T18:57:44.269Z,7.03
2022-12-23T19:00:14.510Z,7.35
2022-12-23T19:02:42.544Z,6.95
2022-12-23T19:05:15.207Z,7.32
2022-12-23T19:07:42.316Z,6.25
2022-12-23T19:10:10.483Z,6.63
2022-12-23T19:12:37.572Z,6.95
2022-12-23T19:15:07.377Z,6.70
2022-12-23T19:17:34.501Z,6.68
2022-12-23T19:20:01.647Z,6.22
2022-12-23T19:22:28.788Z,7.03
2022-12-23T19:25:05.310Z,6.07
2022-12-23T19:27:33.923Z,6.07
2022-12-23T19:30:01.173Z,6.53
2022-12-23T19:32:29.601Z,5.55
2022-12-23T19:34:56.753Z,5.80
2022-12-23T19:37:23.856Z,5.90
2022-12-23T19:39:51.024Z,5.35
2022-12-23T19:42:18.205Z,5.70
2022-12-23T19:44:45.322Z,5.90
2022-12-23T19:47:12.442Z,5.43
2022-12-23T19:49:41.056Z,4.88
2022-12-23T19:52:08.180Z,5.32
2022-12-23T19:54:35.072Z,5.50
2022-12-23T19:57:02.015Z,4.93
2022-12-23T19:59:29.392Z,5.20
2022-12-23T20:01:56.583Z,5.10
2022-12-23T20:04:23.831Z,4.70
2022-12-23T20:06:52.554Z,5.00
2022-12-23T20:09:19.717Z,4.45
2022-12-23T20:11:48.382Z,4.75
2022-12-23T20:14:17.917Z,4.75
2022-12-23T20:16:45.036Z,4.07
2022-12-23T20:19:12.144Z,4.55
2022-12-23T20:21:39.240Z,4.72
2022-12-23T20:24:09.035Z,4.20
2022-12-23T20:26:36.200Z,4.38
2022-12-23T20:29:03.922Z,4.13
2022-12-23T20:31:33.585Z,3.97
2022-12-23T20:34:01.841Z,4.00
2022-12-23T20:36:30.794Z,4.07
2022-12-23T20:38:58.215Z,3.50
2022-12-23T20:41:28.522Z,3.90
2022-12-23T20:44:33.015Z,4.28
2022-12-23T20:46:43.191Z,4.10
2022-12-23T20:49:10.317Z,3.63
2022-12-23T20:51:37.481Z,3.60
2022-12-23T20:54:05.047Z,3.53
2022-12-23T20:56:33.492Z,3.45
2022-12-23T20:59:00.691Z,3.97
2022-12-23T21:01:30.765Z,3.28
2022-12-23T21:03:59.777Z,3.58
2022-12-23T21:06:27.907Z,3.15
2022-12-23T21:08:55.890Z,3.15
2022-12-23T21:11:23.229Z,3.58
2022-12-23T21:13:51.757Z,3.28
2022-12-23T21:16:19.317Z,3.20
2022-12-23T21:18:47.848Z,3.20
2022-12-23T21:21:14.971Z,3.42
2022-12-23T21:23:42.341Z,3.17
2022-12-23T21:26:12.665Z,3.20
2022-12-23T21:28:41.044Z,2.97
2022-12-23T21:31:09.913Z,2.70
2022-12-23T21:33:38.781Z,3.10
2022-12-23T21:36:07.717Z,3.08
2022-12-23T21:38:37.464Z,2.90
2022-12-23T21:41:07.147Z,2.88
2022-12-23T21:43:34.930Z,2.47
2022-12-23T21:46:04.107Z,2.35
2022-12-23T21:48:34.789Z,2.85
2022-12-23T21:51:03.760Z,2.33
2022-12-23T21:53:31.638Z,2.40
2022-12-23T21:56:01.015Z,2.63
2022-12-23T21:58:28.164Z,2.75
2022-12-23T22:00:55.308Z,2.10
2022-12-23T22:03:23.150Z,2.75
2022-12-23T22:05:51.623Z,2.60
2022-12-23T22:08:19.363Z,2.70
2022-12-23T22:10:46.539Z,2.70
2022-12-23T22:13:13.820Z,2.90
2022-12-23T22:15:41.797Z,2.50
2022-12-23T22:18:09.142Z,2.42
2022-12-23T22:20:44.291Z,2.25
2022-12-23T22:23:14.553Z,2.50
2022-12-23T22:25:41.714Z,2.10
2022-12-23T22:28:08.805Z,2.33
2022-12-23T22:30:35.895Z,2.28
2022-12-23T22:33:02.996Z,2.20
2022-12-23T22:35:30.077Z,2.00
2022-12-23T22:37:56.973Z,2.35
2022-12-23T22:40:25.314Z,2.35
2022-12-23T22:42:52.433Z,2.03
2022-12-23T22:45:19.570Z,2.03
2022-12-23T22:47:46.704Z,2.35
2022-12-23T22:50:13.980Z,2.10
2022-12-23T22:52:41.093Z,1.92
2022-12-23T22:55:08.888Z,2.00
2022-12-23T22:57:37.324Z,2.30
2022-12-23T23:00:11.826Z,2.10
2022-12-23T23:02:39.859Z,2.30
2022-12-23T23:05:12.675Z,1.90
2022-12-23T23:07:40.337Z,1.80
2022-12-23T23:10:08.931Z,2.00
2022-12-23T23:12:37.393Z,1.77
2022-12-23T23:15:05.134Z,1.55
2022-12-23T23:17:32.262Z,2.38
2022-12-23T23:19:59.366Z,2.05
2022-12-23T23:22:26.522Z,1.98
2022-12-23T23:24:53.665Z,1.80
2022-12-23T23:27:20.904Z,1.73
2022-12-23T23:29:49.346Z,1.80
2022-12-23T23:32:16.486Z,2.00
2022-12-23T23:34:43.637Z,1.77
2022-12-23T23:37:10.738Z,1.75
2022-12-23T23:39:37.835Z,1.80
2022-12-23T23:42:05.255Z,1.75
2022-12-23T23:44:32.382Z,1.55
2022-12-23T23:47:00.833Z,1.70
2022-12-23T23:49:27.924Z,1.50
2022-12-23T23:51:55.055Z,1.50
2022-12-23T23:54:22.157Z,1.50
2022-12-23T23:56:49.283Z,1.58
2022-12-23T23:59:16.483Z,1.80
